Time;durP1;ratioP1;P1;durP2;ratioP2;P2;SDS_P1;SDS_P2;PMS_P1;PMS_P2;Temp;Humidity;BMP_temperature;BMP_pressure;BME280_temperature;BME280_humidity;BME280_pressure;Samples;Min_cycle;Max_cycle;Signal;HPM_P1;HPM_P2
2022/12/16 00:01:24;;;;;;;47.90;17.30;;;;;;;-4.48;100.00;98427.09;4201003;34;20115;-72
2022/12/16 00:03:53;;;;;;;40.40;14.85;;;;;;;-4.75;100.00;98425.66;4207463;34;20112;-72
2022/12/16 00:06:20;;;;;;;38.75;14.77;;;;;;;-5.00;100.00;98428.28;4216271;34;20059;-72
2022/12/16 00:08:47;;;;;;;51.75;17.67;;;;;;;-4.74;100.00;98427.28;4220501;33;20061;-72
2022/12/16 00:11:13;;;;;;;51.65;18.48;;;;;;;-4.88;100.00;98417.44;4223213;34;20443;-72
2022/12/16 00:13:40;;;;;;;41.97;16.80;;;;;;;-4.93;100.00;98425.81;4207670;34;20184;-72
2022/12/16 00:16:12;;;;;;;43.03;16.73;;;;;;;-5.21;100.00;98357.91;4207175;34;20035;-72
2022/12/16 00:18:40;;;;;;;48.85;15.98;;;;;;;-4.55;100.00;98423.47;4209387;34;20449;-72
2022/12/16 00:21:07;;;;;;;48.22;17.20;;;;;;;-4.90;100.00;98385.28;4220896;34;20052;-72
2022/12/16 00:23:34;;;;;;;48.75;16.90;;;;;;;-4.59;100.00;98424.81;4246815;33;20543;-72
2022/12/16 00:26:01;;;;;;;43.58;15.68;;;;;;;-4.96;100.00;98418.31;4249219;33;20100;-72
2022/12/16 00:28:27;;;;;;;37.90;15.75;;;;;;;-4.86;100.00;98418.94;4243270;33;20068;-72
2022/12/16 00:30:55;;;;;;;48.35;15.52;;;;;;;-4.98;100.00;98415.84;4245157;33;20052;-72
2022/12/16 00:33:24;;;;;;;42.67;16.40;;;;;;;-4.81;100.00;98411.38;4238165;33;20050;-72
2022/12/16 00:35:51;;;;;;;39.45;15.85;;;;;;;-4.72;100.00;98424.50;4235787;33;20034;-72
2022/12/16 00:38:18;;;;;;;43.25;17.33;;;;;;;-4.70;100.00;98427.78;4239708;33;20084;-73
2022/12/16 00:40:45;;;;;;;43.10;15.70;;;;;;;-4.63;100.00;98423.50;4239150;33;20483;-72
2022/12/16 00:43:12;;;;;;;38.72;16.75;;;;;;;-4.84;100.00;98411.72;4239637;33;20191;-72
2022/12/16 00:45:38;;;;;;;44.15;18.20;;;;;;;-4.56;100.00;98429.75;4233252;33;20057;-72
2022/12/16 00:48:05;;;;;;;40.15;15.27;;;;;;;-4.71;100.00;98428.78;4226168;33;20043;-72
2022/12/16 00:50:32;;;;;;;39.67;16.90;;;;;;;-4.51;100.00;98430.06;4225377;34;20023;-72
2022/12/16 00:52:59;;;;;;;37.38;15.55;;;;;;;-4.68;100.00;98383.78;4225095;34;20061;-72
2022/12/16 00:55:26;;;;;;;48.50;17.92;;;;;;;-4.55;100.00;98426.09;4237633;33;20047;-72
2022/12/16 00:57:52;;;;;;;37.67;15.38;;;;;;;-5.01;100.00;98386.44;4242720;33;20068;-72
2022/12/16 03:01:54;;;;;;;56.70;20.50;;;;;;;-4.44;100.00;98307.47;4575203;28;20211;-71
2022/12/16 03:04:36;;;;;;;50.90;18.37;;;;;;;-4.83;100.00;98297.78;4296175;33;20071;-72
2022/12/16 03:07:06;;;;;;;61.22;17.83;;;;;;;-4.78;100.00;98295.47;4296451;33;20036;-71
2022/12/16 03:09:36;;;;;;;38.28;15.15;;;;;;;-4.91;100.00;98247.94;4294713;33;20071;-71
2022/12/16 03:12:06;;;;;;;40.45;18.65;;;;;;;-4.61;100.00;98296.25;4265906;33;20050;-71
2022/12/16 03:14:36;;;;;;;49.20;18.37;;;;;;;-4.65;100.00;98262.59;4280354;33;20041;-71
2022/12/16 03:17:03;;;;;;;50.33;17.33;;;;;;;-4.89;100.00;98280.09;4280518;33;20037;-71
2022/12/16 03:19:30;;;;;;;49.50;19.80;;;;;;;-4.78;100.00;98263.97;4278673;33;20089;-72
2022/12/16 03:22:10;;;;;;;64.05;21.12;;;;;;;-4.69;100.00;98271.81;4280882;33;20236;-72
2022/12/16 03:24:43;;;;;;;61.55;19.45;;;;;;;-4.83;100.00;98270.72;4275527;33;20032;-71
2022/12/16 03:27:12;;;;;;;52.47;20.10;;;;;;;-4.78;100.00;98244.75;4264801;33;20510;-71
2022/12/16 03:30:11;;;;;;;58.22;21.25;;;;;;;-4.99;100.00;98240.09;4267179;33;20054;-71
2022/12/16 03:32:45;;;;;;;56.22;21.35;;;;;;;-4.52;100.00;98268.13;4266086;33;20038;-71
2022/12/16 03:35:14;;;;;;;71.87;26.20;;;;;;;-4.62;100.00;98259.62;4266776;33;20797;-72
2022/12/16 03:37:44;;;;;;;45.28;20.08;;;;;;;-4.62;100.00;98259.62;4266326;33;20033;-72
2022/12/16 03:40:13;;;;;;;68.85;24.17;;;;;;;-4.72;100.00;98259.00;4265976;33;20046;-72
2022/12/16 03:42:42;;;;;;;52.38;19.83;;;;;;;-5.04;100.00;98218.75;4255318;33;20629;-72
2022/12/16 03:45:15;;;;;;;54.35;20.00;;;;;;;-4.65;100.00;98226.63;4237405;33;20038;-72
2022/12/16 03:47:48;;;;;;;56.83;20.77;;;;;;;-4.41;100.00;98244.06;4236888;33;20398;-72
2022/12/16 03:50:18;;;;;;;50.47;20.05;;;;;;;-4.53;100.00;98239.38;4235325;33;20034;-72
2022/12/16 03:52:44;;;;;;;49.80;19.70;;;;;;;-4.55;100.00;98244.81;4250281;33;20190;-71
2022/12/16 03:55:11;;;;;;;60.12;20.67;;;;;;;-4.76;100.00;98230.44;4251565;33;20046;-72
2022/12/16 03:57:37;;;;;;;52.92;19.70;;;;;;;-4.80;100.00;98244.94;4258510;33;20026;-71
2022/12/16 04:00:05;;;;;;;51.90;19.95;;;;;;;-5.19;100.00;98214.19;4279825;33;20046;-72
2022/12/16 04:02:37;;;;;;;61.70;21.77;;;;;;;-4.88;100.00;98252.84;4281340;33;20045;-72
2022/12/16 04:05:05;;;;;;;66.60;22.20;;;;;;;-4.89;100.00;98245.94;4282681;33;20045;-72
2022/12/16 04:07:31;;;;;;;53.55;20.52;;;;;;;-4.98;100.00;98231.19;4282578;33;20052;-72
2022/12/16 04:09:57;;;;;;;66.00;25.55;;;;;;;-4.69;100.00;98240.28;4282665;33;20075;-72
2022/12/16 04:29:32;;;;;;;45.90;17.33;;;;;;;-4.63;100.00;98229.91;4282924;33;20063;-72
2022/12/16 04:32:00;;;;;;;55.90;19.73;;;;;;;-4.50;100.00;98229.38;4284832;33;20424;-72
2022/12/16 04:34:26;;;;;;;51.15;20.00;;;;;;;-4.59;100.00;98204.13;4282513;33;20049;-72
